Time;durP1;ratioP1;P1;durP2;ratioP2;P2;SDS_P1;SDS_P2;PMS_P1;PMS_P2;Temp;Humidity;BMP_temperature;BMP_pressure;BME280_temperature;BME280_humidity;BME280_pressure;Samples;Min_cycle;Max_cycle;Signal;HPM_P1;HPM_P2
2023/12/12 00:00:03;;;;;;;2.40;1.50;;;;;;;3.10;82.42;99322.58;79195;1298;3018606;-61
2023/12/12 00:02:40;;;;;;;2.30;1.60;;;;;;;2.96;83.26;99323.20;78010;1300;3050372;-63
2023/12/12 00:05:07;;;;;;;2.90;1.50;;;;;;;2.82;83.47;99326.94;79284;1300;3019363;-62
2023/12/12 00:07:34;;;;;;;2.40;1.60;;;;;;;2.68;84.02;99325.96;79237;1297;3011948;-62
2023/12/12 00:10:03;;;;;;;3.60;2.30;;;;;;;2.58;84.55;99328.69;78027;1300;3051157;-61
2023/12/12 00:12:31;;;;;;;3.40;2.00;;;;;;;2.49;85.26;99323.41;79289;1300;3013322;-60
2023/12/12 00:14:58;;;;;;;2.00;1.60;;;;;;;2.46;85.58;99327.65;79204;1298;3011931;-61
2023/12/12 00:17:26;;;;;;;2.10;1.50;;;;;;;2.90;84.61;99326.31;78044;1300;3048727;-60
2023/12/12 00:19:53;;;;;;;2.70;1.70;;;;;;;3.49;82.52;99322.84;79188;1300;3013034;-60
2023/12/12 00:22:19;;;;;;;2.30;1.50;;;;;;;3.53;81.51;99321.15;79169;1300;3011556;-59
2023/12/12 00:24:48;;;;;;;1.80;1.10;;;;;;;3.35;81.78;99321.60;78009;1300;3028807;-59
2023/12/12 00:27:15;;;;;;;2.20;1.40;;;;;;;3.23;82.32;99320.61;79318;1300;3014992;-60
2023/12/12 00:29:42;;;;;;;2.10;1.40;;;;;;;3.11;82.78;99317.02;79209;1297;3011655;-61
2023/12/12 00:32:10;;;;;;;2.70;1.70;;;;;;;2.95;83.12;99316.66;77992;1300;3049556;-61
2023/12/12 00:34:37;;;;;;;3.90;1.80;;;;;;;2.73;83.87;99314.56;79257;1300;3013276;-61
2023/12/12 00:37:05;;;;;;;2.90;1.40;;;;;;;2.61;84.44;99313.22;79226;1300;3011418;-61
2023/12/12 00:39:39;;;;;;;3.50;1.70;;;;;;;2.44;85.03;99309.89;78030;1300;3053077;-59
2023/12/12 00:42:08;;;;;;;2.10;1.50;;;;;;;2.29;85.93;99310.36;78670;1300;3011670;-59
2023/12/12 00:44:35;;;;;;;1.20;0.80;;;;;;;2.21;86.59;99312.48;79227;1300;3021282;-59
2023/12/12 00:47:02;;;;;;;1.70;1.20;;;;;;;2.70;85.71;99309.64;79246;1300;3011662;-60
2023/12/12 00:49:31;;;;;;;2.40;1.30;;;;;;;3.23;83.30;99307.27;78179;1297;3047933;-59
2023/12/12 00:51:57;;;;;;;1.70;1.00;;;;;;;3.48;82.66;99298.30;79222;1299;3013911;-59
2023/12/12 00:54:24;;;;;;;3.60;1.10;;;;;;;3.26;82.23;99297.14;79309;1298;3011342;-59
2023/12/12 00:56:52;;;;;;;1.70;1.20;;;;;;;3.00;83.07;99297.64;78074;1300;3025548;-60
2023/12/12 00:59:19;;;;;;;3.10;1.30;;;;;;;2.86;83.81;99295.33;79273;1295;3013571;-59
2023/12/12 01:01:46;;;;;;;2.10;1.50;;;;;;;2.75;84.15;99285.95;79514;1297;3011610;-60
2023/12/12 01:04:14;;;;;;;2.50;1.30;;;;;;;2.54;84.56;99285.56;78178;1299;3027907;-63
2023/12/12 01:06:42;;;;;;;1.70;1.30;;;;;;;2.41;85.32;99280.45;79417;1295;3013188;-62
2023/12/12 01:09:08;;;;;;;2.70;1.40;;;;;;;2.32;85.95;99282.27;79403;1298;3011773;-60
2023/12/12 01:11:37;;;;;;;1.80;1.10;;;;;;;2.18;86.53;99277.14;78061;1300;3052549;-61
2023/12/12 01:14:04;;;;;;;1.30;0.80;;;;;;;2.18;86.84;99277.14;79294;1297;3012979;-61
2023/12/12 01:16:30;;;;;;;1.50;1.00;;;;;;;2.61;86.02;99279.30;79220;1299;3013705;-62
2023/12/12 01:18:59;;;;;;;2.20;1.10;;;;;;;3.18;83.95;99278.17;78018;1300;3027788;-61
2023/12/12 01:21:26;;;;;;;2.20;0.90;;;;;;;3.33;82.97;99274.20;79280;1300;3013220;-61
2023/12/12 01:23:54;;;;;;;1.30;0.70;;;;;;;3.18;82.71;99273.69;79313;1296;3011551;-61
2023/12/12 01:26:23;;;;;;;1.80;0.80;;;;;;;3.01;83.08;99267.50;78206;1300;3052109;-61
2023/12/12 01:28:50;;;;;;;1.00;0.80;;;;;;;2.69;83.88;99257.97;79323;1300;3015723;-61
2023/12/12 01:31:17;;;;;;;1.30;1.00;;;;;;;2.54;84.48;99260.32;79301;1297;3014003;-59
2023/12/12 01:33:47;;;;;;;2.90;0.80;;;;;;;2.38;85.37;99267.05;78147;1300;3048893;-61
2023/12/12 01:36:13;;;;;;;1.10;0.90;;;;;;;2.19;86.15;99262.42;79244;1300;3013301;-60
2023/12/12 01:38:40;;;;;;;1.30;0.90;;;;;;;1.97;87.28;99263.23;79267;1300;3011681;-62
2023/12/12 01:41:08;;;;;;;0.90;0.70;;;;;;;1.91;87.50;99263.58;78059;1300;3051148;-60
2023/12/12 01:43:35;;;;;;;1.30;0.80;;;;;;;2.35;87.27;99256.23;79288;1299;3013518;-61
2023/12/12 01:46:04;;;;;;;1.00;0.70;;;;;;;2.96;85.15;99248.63;79313;1299;3011769;-61
2023/12/12 01:48:32;;;;;;;1.00;0.70;;;;;;;3.14;83.91;99242.33;78042;1300;3049068;-61
2023/12/12 01:51:00;;;;;;;1.10;0.80;;;;;;;2.95;83.65;99249.02;79260;1298;3013015;-60
2023/12/12 01:53:32;;;;;;;1.60;1.00;;;;;;;2.77;84.24;99241.98;79243;1298;3011710;-60
2023/12/12 01:56:03;;;;;;;1.10;0.80;;;;;;;2.55;84.69;99241.27;78056;1300;3052078;-61
2023/12/12 01:58:30;;;;;;;1.10;0.90;;;;;;;2.41;85.38;99244.64;79302;1297;3013496;-61
2023/12/12 02:01:00;;;;;;;1.40;0.80;;;;;;;2.32;85.68;99238.00;78765;1295;3011529;-61
2023/12/12 02:03:26;;;;;;;1.70;1.10;;;;;;;2.24;85.97;99236.04;79239;1298;3013707;-61
2023/12/12 02:05:57;;;;;;;1.40;1.00;;;;;;;2.10;86.52;99227.95;79194;1298;3011779;-60
2023/12/12 02:08:28;;;;;;;0.80;0.70;;;;;;;1.97;87.33;99222.45;78025;1299;3050543;-61
2023/12/12 02:10:55;;;;;;;1.50;0.80;;;;;;;2.40;86.60;99214.76;79282;1298;3012959;-59
2023/12/12 02:13:23;;;;;;;1.50;0.70;;;;;;;2.96;84.49;99211.44;78126;1300;3028145;-60
2023/12/12 02:15:50;;;;;;;1.70;0.70;;;;;;;3.07;83.61;99213.14;79289;1299;3018414;-59
2023/12/12 02:18:17;;;;;;;1.30;0.80;;;;;;;2.95;83.39;99214.38;79378;1299;3011403;-59
2023/12/12 02:20:45;;;;;;;0.90;0.80;;;;;;;2.70;83.97;99216.77;78190;1300;3028616;-61
2023/12/12 02:23:12;;;;;;;1.10;0.60;;;;;;;2.47;84.83;99218.36;79275;1298;3013007;-61
2023/12/12 02:25:39;;;;;;;1.30;1.00;;;;;;;2.27;85.51;99214.31;79220;1299;3012948;-61
2023/12/12 02:28:08;;;;;;;1.40;0.80;;;;;;;2.17;86.20;99216.84;78117;1300;3028842;-60
2023/12/12 02:30:35;;;;;;;1.90;0.90;;;;;;;2.01;86.76;99224.44;79266;1300;3013627;-59
2023/12/12 02:33:03;;;;;;;1.30;0.90;;;;;;;1.96;87.33;99227.50;79272;1298;3011556;-60
2023/12/12 02:35:32;;;;;;;1.40;0.70;;;;;;;1.92;87.54;99223.30;78063;1300;3048948;-61
2023/12/12 02:37:59;;;;;;;1.10;0.70;;;;;;;2.40;86.63;99213.77;79328;1298;3013929;-61
2023/12/12 02:40:26;;;;;;;1.00;0.80;;;;;;;2.78;84.63;99208.91;79231;1298;3011621;-64
2023/12/12 02:42:54;;;;;;;1.30;0.80;;;;;;;3.02;83.70;99204.47;78138;1300;3053105;-60
2023/12/12 02:45:21;;;;;;;1.90;0.90;;;;;;;2.89;83.59;99203.52;79302;1299;3012856;-61
2023/12/12 02:47:47;;;;;;;1.20;0.90;;;;;;;2.68;84.09;99204.21;79330;1298;3012936;-60
2023/12/12 02:50:15;;;;;;;0.90;0.80;;;;;;;2.42;84.85;99203.15;78090;1300;3026521;-61
2023/12/12 02:52:42;;;;;;;1.10;0.90;;;;;;;2.26;85.58;99204.85;79430;1295;3012933;-61
2023/12/12 02:55:09;;;;;;;2.20;1.20;;;;;;;2.15;86.28;99200.50;79373;1296;3011447;-60
2023/12/12 02:57:37;;;;;;;1.10;0.80;;;;;;;2.05;86.70;99196.30;78076;1300;3028289;-59
2023/12/12 03:00:05;;;;;;;1.30;1.10;;;;;;;1.94;87.42;99194.58;79352;1299;3012961;-61
2023/12/12 03:02:35;;;;;;;1.00;0.80;;;;;;;1.86;87.72;99196.70;79298;1295;3011588;-63
2023/12/12 03:05:04;;;;;;;1.30;0.70;;;;;;;2.35;87.28;99190.38;78114;1299;3050005;-62
2023/12/12 03:07:31;;;;;;;1.10;0.70;;;;;;;2.90;85.00;99187.41;79356;1301;3013562;-60
2023/12/12 03:09:58;;;;;;;0.90;0.70;;;;;;;2.94;84.13;99185.36;79364;1298;3011546;-62
2023/12/12 03:12:26;;;;;;;0.90;0.70;;;;;;;2.73;84.31;99182.95;78110;1300;3052075;-61
2023/12/12 03:14:53;;;;;;;1.30;0.90;;;;;;;2.51;84.99;99186.59;79244;1300;3013149;-61
2023/12/12 03:17:20;;;;;;;1.20;1.00;;;;;;;2.40;85.73;99191.79;79241;1300;3011892;-59
2023/12/12 03:19:48;;;;;;;2.50;1.20;;;;;;;2.19;86.39;99191.56;78020;1299;3028573;-60
2023/12/12 03:22:15;;;;;;;2.00;1.10;;;;;;;2.03;87.38;99188.93;79337;1300;3018825;-61
2023/12/12 03:24:41;;;;;;;2.60;1.20;;;;;;;1.96;87.96;99194.68;79436;1296;3011839;-62
2023/12/12 03:27:09;;;;;;;2.20;1.20;;;;;;;1.85;88.42;99197.77;78059;1300;3028487;-61
2023/12/12 03:29:36;;;;;;;2.10;0.90;;;;;;;2.24;87.77;99194.16;79300;1300;3020982;-59
2023/12/12 03:32:03;;;;;;;2.40;1.30;;;;;;;2.93;85.80;99197.66;79209;1300;3013119;-60
2023/12/12 03:34:32;;;;;;;1.60;0.90;;;;;;;2.98;84.62;99199.42;78058;1301;3049513;-60
2023/12/12 03:36:59;;;;;;;1.50;1.00;;;;;;;2.78;84.80;99203.55;79238;1300;3012953;-59
2023/12/12 03:39:25;;;;;;;2.40;1.00;;;;;;;2.56;85.43;99198.89;79231;1300;3013382;-60
2023/12/12 03:41:54;;;;;;;1.60;1.00;;;;;;;2.35;86.10;99198.86;78080;1308;3026446;-62
2023/12/12 03:44:20;;;;;;;1.40;0.80;;;;;;;2.19;87.20;99194.70;79424;1295;3012882;-60
2023/12/12 03:46:47;;;;;;;1.30;1.00;;;;;;;2.12;87.48;99195.77;79414;1297;3013813;-60
2023/12/12 03:49:15;;;;;;;1.10;0.90;;;;;;;1.93;88.17;99196.98;78115;1299;3049108;-61
2023/12/12 03:51:42;;;;;;;1.20;0.90;;;;;;;1.80;88.88;99198.09;79366;1299;3012919;-61
2023/12/12 03:54:09;;;;;;;1.60;0.90;;;;;;;2.14;88.77;99201.40;79301;1299;3011893;-63
2023/12/12 03:56:37;;;;;;;1.20;0.70;;;;;;;2.67;86.70;99207.72;78104;1300;3028821;-60
2023/12/12 03:59:04;;;;;;;1.40;1.10;;;;;;;2.75;85.82;99210.21;79308;1300;3013157;-61
2023/12/12 04:01:31;;;;;;;1.20;0.90;;;;;;;2.71;85.83;99212.59;79377;1300;3011827;-61
2023/12/12 04:04:00;;;;;;;0.80;0.70;;;;;;;2.53;86.32;99212.48;78021;1301;3026378;-59
2023/12/12 04:06:26;;;;;;;1.20;1.00;;;;;;;2.24;86.89;99215.95;79447;1296;3012723;-60
2023/12/12 04:08:54;;;;;;;2.10;1.20;;;;;;;1.99;88.13;99208.61;79251;1301;3011481;-61
2023/12/12 04:11:22;;;;;;;2.60;1.80;;;;;;;1.92;89.10;99214.84;78099;1300;3051577;-60
2023/12/12 04:13:49;;;;;;;2.40;1.50;;;;;;;1.85;89.41;99210.56;79294;1296;3019069;-61
2023/12/12 04:16:15;;;;;;;2.90;1.30;;;;;;;1.76;89.79;99210.46;79224;1299;3011539;-60
2023/12/12 04:18:44;;;;;;;2.00;1.30;;;;;;;2.19;89.07;99211.79;78022;1308;3028863;-60
2023/12/12 04:21:10;;;;;;;2.50;1.50;;;;;;;2.62;87.53;99210.10;79310;1296;3018477;-59
2023/12/12 04:23:42;;;;;;;2.10;1.10;;;;;;;2.75;86.07;99214.17;79211;1300;3011514;-60
2023/12/12 04:26:10;;;;;;;2.00;1.20;;;;;;;2.66;86.32;99218.12;77995;1300;3052496;-59
2023/12/12 04:28:37;;;;;;;1.70;1.40;;;;;;;2.49;86.59;99221.61;79253;1300;3013581;-58
2023/12/12 04:31:05;;;;;;;3.00;1.50;;;;;;;2.32;87.06;99220.04;79196;1301;3013096;-60
2023/12/12 04:33:33;;;;;;;2.50;2.00;;;;;;;2.01;88.02;99224.25;78096;1301;3049185;-59
2023/12/12 04:36:01;;;;;;;3.20;1.80;;;;;;;1.81;89.38;99221.03;79283;1295;3013193;-60
2023/12/12 04:38:28;;;;;;;2.80;2.20;;;;;;;1.78;89.72;99223.36;79254;1301;3013279;-60
2023/12/12 04:40:56;;;;;;;3.10;1.30;;;;;;;1.74;90.35;99224.85;78102;1300;3052157;-60
2023/12/12 04:43:22;;;;;;;2.60;1.90;;;;;;;2.10;89.96;99220.69;79298;1301;3013365;-59
2023/12/12 04:45:49;;;;;;;3.40;1.50;;;;;;;2.64;87.97;99211.27;79266;1299;3013142;-61
2023/12/12 04:48:17;;;;;;;1.90;1.50;;;;;;;2.70;86.75;99213.84;78148;1300;3028251;-61
2023/12/12 04:50:44;;;;;;;3.10;1.80;;;;;;;2.63;86.85;99215.93;79382;1300;3013120;-61
2023/12/12 04:53:11;;;;;;;4.40;2.30;;;;;;;2.56;86.96;99215.48;79478;1300;3013094;-59
2023/12/12 04:55:40;;;;;;;4.50;2.00;;;;;;;2.34;87.32;99217.05;78007;1308;3028837;-61
2023/12/12 04:58:06;;;;;;;5.40;1.70;;;;;;;2.10;88.02;99221.91;79216;1308;3013252;-60
2023/12/12 05:00:33;;;;;;;3.70;2.20;;;;;;;1.98;88.89;99226.58;79302;1296;3012190;-61
2023/12/12 05:03:01;;;;;;;6.90;2.20;;;;;;;1.93;89.26;99222.25;78013;1302;3049630;-61
2023/12/12 05:05:29;;;;;;;3.80;2.00;;;;;;;1.85;89.82;99223.50;79380;1300;3013136;-60
2023/12/12 05:07:55;;;;;;;4.00;2.00;;;;;;;2.29;89.19;99210.96;79304;1301;3011771;-61
2023/12/12 05:10:24;;;;;;;4.80;2.00;;;;;;;2.94;87.06;99205.26;78149;1306;3026171;-59
2023/12/12 05:12:50;;;;;;;4.00;2.30;;;;;;;2.96;85.57;99203.98;79312;1300;3013199;-61
2023/12/12 05:15:17;;;;;;;3.70;2.20;;;;;;;2.78;85.77;99201.12;79284;1300;3012552;-59
2023/12/12 05:17:45;;;;;;;4.20;2.30;;;;;;;2.61;86.15;99202.17;78146;1296;3026707;-59
2023/12/12 05:20:13;;;;;;;3.10;1.90;;;;;;;2.40;86.74;99204.04;79216;1300;3013252;-60
2023/12/12 05:22:40;;;;;;;3.80;1.80;;;;;;;2.35;87.50;99207.67;79287;1296;3011590;-59
2023/12/12 05:25:09;;;;;;;3.50;2.20;;;;;;;2.20;87.89;99213.31;78050;1300;3052282;-60
2023/12/12 05:27:35;;;;;;;3.20;2.10;;;;;;;1.96;88.68;99214.73;79416;1296;3013518;-60
2023/12/12 05:30:03;;;;;;;2.60;1.60;;;;;;;1.93;89.48;99215.15;79269;1301;3011455;-62
2023/12/12 05:32:31;;;;;;;2.90;2.00;;;;;;;2.42;88.54;99212.11;78103;1308;3049606;-60
2023/12/12 05:34:58;;;;;;;4.40;2.10;;;;;;;3.02;86.43;99206.55;79213;1300;3013630;-60
2023/12/12 05:37:25;;;;;;;3.60;2.00;;;;;;;3.03;85.20;99199.23;79261;1301;3011632;-59
2023/12/12 05:39:53;;;;;;;4.10;2.40;;;;;;;2.80;85.31;99203.48;78025;1300;3028887;-59
2023/12/12 05:42:20;;;;;;;3.70;2.30;;;;;;;2.66;85.88;99213.79;79378;1300;3013721;-59
2023/12/12 05:44:47;;;;;;;5.50;2.40;;;;;;;2.59;86.61;99214.34;79278;1300;3011637;-59
2023/12/12 05:47:15;;;;;;;3.80;2.20;;;;;;;2.34;87.15;99217.21;77976;1299;3025990;-59
2023/12/12 05:49:42;;;;;;;4.40;2.60;;;;;;;2.16;87.81;99222.78;79290;1301;3012786;-61
2023/12/12 05:52:08;;;;;;;4.10;2.40;;;;;;;2.09;88.49;99221.58;79330;1300;3013291;-61
2023/12/12 05:54:36;;;;;;;5.90;2.50;;;;;;;2.03;88.98;99226.09;78072;1301;3028205;-59
2023/12/12 05:57:04;;;;;;;3.70;2.40;;;;;;;2.35;88.32;99233.79;79421;1300;3013470;-60
2023/12/12 05:59:32;;;;;;;4.30;2.20;;;;;;;2.89;86.64;99230.52;79248;1298;3011732;-61
2023/12/12 06:02:00;;;;;;;4.40;2.10;;;;;;;2.88;85.88;99226.92;78120;1299;3049515;-60
2023/12/12 06:04:28;;;;;;;4.50;2.70;;;;;;;2.91;85.86;99222.13;79243;1299;3013726;-62
2023/12/12 06:06:54;;;;;;;4.90;2.90;;;;;;;2.76;86.01;99224.52;79279;1296;3011922;-62
2023/12/12 06:09:23;;;;;;;5.50;3.00;;;;;;;2.59;86.58;99221.98;78161;1301;3050798;-59
2023/12/12 06:11:50;;;;;;;5.20;3.00;;;;;;;2.48;87.09;99218.86;79304;1297;3013985;-61
2023/12/12 06:14:17;;;;;;;4.70;2.80;;;;;;;2.34;87.45;99221.88;79381;1298;3011941;-59
2023/12/12 06:16:45;;;;;;;4.70;3.00;;;;;;;2.16;88.24;99220.36;78096;1298;3048370;-61
2023/12/12 06:19:11;;;;;;;5.60;2.60;;;;;;;2.09;88.92;99215.39;79355;1300;3012828;-60
2023/12/12 06:21:38;;;;;;;4.70;2.70;;;;;;;2.54;87.95;99209.67;79332;1300;3011633;-61
2023/12/12 06:24:07;;;;;;;4.20;2.40;;;;;;;3.09;85.82;99210.12;78097;1295;3027960;-62
2023/12/12 06:26:34;;;;;;;4.80;2.60;;;;;;;3.12;84.96;99209.17;79367;1297;3013066;-61
2023/12/12 06:29:02;;;;;;;4.40;2.10;;;;;;;2.91;85.11;99207.44;79475;1298;3012898;-59
2023/12/12 06:31:31;;;;;;;6.50;2.90;;;;;;;2.66;85.93;99220.52;78044;1300;3049082;-59
2023/12/12 06:33:58;;;;;;;5.80;2.80;;;;;;;2.54;86.75;99226.11;79254;1297;3014821;-59
2023/12/12 06:36:24;;;;;;;6.00;3.30;;;;;;;2.47;87.22;99235.30;79256;1298;3011810;-60
2023/12/12 06:38:53;;;;;;;5.10;2.80;;;;;;;2.29;87.57;99241.91;78108;1301;3051853;-59
2023/12/12 06:41:20;;;;;;;5.80;3.20;;;;;;;2.21;87.72;99244.91;79391;1296;3014845;-61
2023/12/12 06:43:46;;;;;;;6.90;3.80;;;;;;;2.11;88.42;99251.26;79378;1296;3012302;-62
2023/12/12 06:46:18;;;;;;;6.60;3.70;;;;;;;2.03;89.00;99251.83;78324;1300;3048662;-60
2023/12/12 06:48:44;;;;;;;9.70;5.10;;;;;;;2.48;88.23;99250.50;79420;1300;3012069;-61
2023/12/12 06:51:13;;;;;;;7.90;4.60;;;;;;;2.94;86.20;99246.27;79149;1300;3011958;-61
2023/12/12 06:53:40;;;;;;;9.70;4.60;;;;;;;3.19;85.40;99246.30;79444;1300;3019058;-61
2023/12/12 06:56:09;;;;;;;11.20;5.40;;;;;;;2.99;85.22;99243.70;79443;1295;3012971;-60
2023/12/12 06:58:37;;;;;;;8.30;4.70;;;;;;;2.74;85.76;99244.16;78199;1303;3050902;-61
2023/12/12 07:01:04;;;;;;;8.30;3.70;;;;;;;2.53;86.56;99243.42;79570;1296;3013452;-62
2023/12/12 07:03:32;;;;;;;7.50;4.20;;;;;;;2.43;87.28;99248.73;79605;1294;3011602;-63
2023/12/12 07:06:02;;;;;;;7.40;3.90;;;;;;;2.35;87.86;99261.09;78326;1294;3049428;-60
2023/12/12 07:08:29;;;;;;;6.50;3.80;;;;;;;2.24;88.41;99264.52;79515;1297;3012701;-61
2023/12/12 07:10:56;;;;;;;5.10;2.80;;;;;;;2.18;89.03;99257.77;79695;1295;3011980;-60
2023/12/12 07:13:24;;;;;;;5.10;3.00;;;;;;;2.55;88.13;99245.06;78410;1296;3051074;-60
2023/12/12 07:15:51;;;;;;;5.50;3.20;;;;;;;3.11;85.99;99241.56;79396;1296;3020314;-60
2023/12/12 07:18:18;;;;;;;7.70;3.20;;;;;;;3.14;85.00;99237.14;79444;1296;3013374;-61
2023/12/12 07:20:46;;;;;;;10.20;3.60;;;;;;;3.06;85.21;99238.77;78153;1300;3025900;-62
2023/12/12 07:23:13;;;;;;;8.00;3.70;;;;;;;2.92;85.53;99246.67;79411;1300;3013196;-63
2023/12/12 07:25:39;;;;;;;4.40;3.00;;;;;;;2.70;86.23;99250.84;79514;1298;3013233;-61
2023/12/12 07:28:07;;;;;;;5.70;3.10;;;;;;;2.57;86.79;99250.39;78334;1298;3027909;-61
2023/12/12 07:30:35;;;;;;;5.60;3.40;;;;;;;2.39;87.36;99256.80;79496;1298;3013244;-62
2023/12/12 07:33:02;;;;;;;5.60;3.60;;;;;;;2.38;88.05;99260.84;76926;1300;3616966;-60
2023/12/12 07:35:29;;;;;;;8.00;3.80;;;;;;;2.33;88.17;99259.08;79539;1298;3012090;-61
2023/12/12 07:37:59;;;;;;;4.60;3.00;;;;;;;2.73;87.57;99247.27;78247;1300;3051854;-63
2023/12/12 07:40:26;;;;;;;7.00;4.00;;;;;;;3.21;85.40;99240.52;79524;1295;3012987;-61
2023/12/12 07:42:52;;;;;;;8.80;3.40;;;;;;;3.29;84.45;99241.48;79557;1294;3011621;-59
2023/12/12 07:45:21;;;;;;;5.70;3.90;;;;;;;3.24;84.77;99244.94;78315;1298;3048818;-62
2023/12/12 07:47:48;;;;;;;7.20;3.80;;;;;;;3.17;85.06;99242.38;79682;1297;3013061;-58
2023/12/12 07:50:17;;;;;;;5.50;3.60;;;;;;;3.06;85.24;99243.11;79508;1295;3011517;-61
2023/12/12 07:52:47;;;;;;;7.90;4.00;;;;;;;2.92;85.79;99239.92;78179;1298;3051384;-63
2023/12/12 07:55:14;;;;;;;8.30;3.80;;;;;;;2.86;86.22;99241.52;79548;1294;3013223;-60
2023/12/12 07:57:43;;;;;;;7.70;4.40;;;;;;;2.66;86.76;99247.85;78949;1296;3011493;-60
2023/12/12 08:00:12;;;;;;;7.60;4.40;;;;;;;2.57;87.34;99246.25;79536;1298;3020488;-58
2023/12/12 08:02:40;;;;;;;7.50;3.90;;;;;;;2.62;87.64;99243.30;79304;1298;3012005;-58
2023/12/12 08:05:08;;;;;;;7.10;4.00;;;;;;;3.03;86.94;99245.10;78455;1295;3049754;-61
2023/12/12 08:07:35;;;;;;;7.10;3.50;;;;;;;3.47;84.49;99241.18;79545;1298;3013809;-61
2023/12/12 08:10:02;;;;;;;9.00;4.40;;;;;;;3.59;83.84;99242.15;79498;1293;3012756;-60
2023/12/12 08:12:30;;;;;;;10.40;5.40;;;;;;;3.56;83.76;99240.86;78406;1298;3024944;-62
2023/12/12 08:14:57;;;;;;;7.80;4.00;;;;;;;3.38;84.11;99240.48;79553;1292;3013225;-59
2023/12/12 08:17:24;;;;;;;9.80;5.50;;;;;;;3.08;84.80;99240.60;79522;1298;3011647;-60
2023/12/12 08:19:52;;;;;;;8.10;4.80;;;;;;;3.00;85.36;99244.17;78355;1297;3028557;-61
2023/12/12 08:22:19;;;;;;;10.30;5.70;;;;;;;2.76;86.21;99244.59;79574;1294;3019257;-63
2023/12/12 08:24:50;;;;;;;10.60;6.20;;;;;;;2.68;86.99;99242.96;79521;1300;3013364;-61
2023/12/12 08:27:18;;;;;;;10.90;7.40;;;;;;;2.47;87.66;99236.19;78281;1298;3051456;-63
2023/12/12 08:29:46;;;;;;;7.80;4.00;;;;;;;2.40;88.65;99230.66;79823;1297;3013022;-62
2023/12/12 08:32:13;;;;;;;9.30;5.00;;;;;;;2.95;87.61;99217.35;79505;1293;3011956;-63
2023/12/12 08:34:41;;;;;;;6.20;3.60;;;;;;;3.48;85.24;99213.27;78186;1299;3050600;-61
2023/12/12 08:37:08;;;;;;;8.00;4.50;;;;;;;3.60;84.39;99214.74;79661;1294;3012830;-62
2023/12/12 08:39:35;;;;;;;8.20;4.40;;;;;;;3.58;84.29;99211.88;79506;1300;3011561;-60
2023/12/12 08:42:04;;;;;;;7.20;4.40;;;;;;;3.34;84.56;99205.10;78227;1298;3026210;-62
2023/12/12 08:44:31;;;;;;;7.10;4.20;;;;;;;3.18;85.15;99202.55;79737;1292;3012742;-61
2023/12/12 08:46:57;;;;;;;8.40;4.60;;;;;;;2.96;85.87;99203.27;79779;1294;3013473;-60
2023/12/12 08:49:26;;;;;;;10.90;4.50;;;;;;;2.82;86.62;99202.21;78682;1292;3050245;-61
2023/12/12 08:51:53;;;;;;;10.00;4.90;;;;;;;2.80;87.03;99198.83;79576;1297;3014631;-62
2023/12/12 08:54:20;;;;;;;12.50;5.00;;;;;;;2.71;87.29;99202.55;79600;1298;3011620;-58
2023/12/12 08:56:52;;;;;;;6.20;3.70;;;;;;;2.64;87.75;99197.92;78397;1294;3050623;-61
2023/12/12 08:59:21;;;;;;;8.90;4.50;;;;;;;3.19;86.92;99191.78;79870;1294;3013108;-58
2023/12/12 09:01:49;;;;;;;10.70;5.10;;;;;;;3.69;84.65;99190.86;78369;1292;3046974;-59
2023/12/12 09:04:16;;;;;;;8.60;4.50;;;;;;;3.57;84.07;99191.82;79615;1297;3013078;-60
2023/12/12 09:06:44;;;;;;;8.90;5.30;;;;;;;3.57;84.26;99196.14;79565;1298;3011749;-58
2023/12/12 09:09:12;;;;;;;9.50;5.90;;;;;;;3.38;84.65;99194.25;78409;1299;3053820;-58
2023/12/12 09:11:39;;;;;;;9.30;5.20;;;;;;;3.30;85.08;99195.38;79705;1294;3015250;-60
2023/12/12 09:14:06;;;;;;;13.30;6.20;;;;;;;3.16;85.73;99196.73;79691;1298;3013057;-60
2023/12/12 09:16:34;;;;;;;12.80;6.70;;;;;;;3.01;86.27;99191.00;78621;1293;3025014;-61
2023/12/12 09:19:01;;;;;;;10.60;6.10;;;;;;;2.89;86.76;99189.01;79687;1294;3020450;-59
2023/12/12 09:21:28;;;;;;;12.50;6.70;;;;;;;2.86;87.33;99187.70;79375;1297;3013160;-59
2023/12/12 09:23:57;;;;;;;8.00;4.00;;;;;;;2.72;87.99;99185.92;78359;1296;3026532;-61
2023/12/12 09:26:23;;;;;;;9.60;4.30;;;;;;;3.18;87.25;99185.23;79554;1297;3019319;-62
2023/12/12 09:28:50;;;;;;;9.80;4.90;;;;;;;3.79;85.13;99192.23;79656;1298;3011631;-59
2023/12/12 09:31:26;;;;;;;7.80;3.90;;;;;;;3.93;84.16;99192.59;78502;1298;3028566;-60
2023/12/12 09:33:55;;;;;;;8.20;4.60;;;;;;;3.81;83.84;99198.23;78396;1298;3053012;-61
2023/12/12 09:36:21;;;;;;;8.50;4.50;;;;;;;3.60;84.35;99193.09;79523;1297;3013434;-61
2023/12/12 09:38:48;;;;;;;7.50;4.50;;;;;;;3.44;84.76;99198.34;79570;1298;3011553;-61
2023/12/12 09:41:21;;;;;;;7.80;5.20;;;;;;;3.31;85.38;99195.36;78273;1292;3067604;-60
2023/12/12 09:43:48;;;;;;;9.30;4.50;;;;;;;3.19;85.93;99190.40;79254;1294;3015573;-59
2023/12/12 09:46:17;;;;;;;10.30;4.90;;;;;;;3.07;86.47;99188.73;78607;1294;3056589;-59
2023/12/12 09:48:45;;;;;;;6.70;4.20;;;;;;;2.97;87.25;99186.99;79566;1292;3013449;-59
2023/12/12 09:51:12;;;;;;;7.00;3.80;;;;;;;3.00;87.33;99186.91;79517;1298;3011998;-64
2023/12/12 09:53:47;;;;;;;6.80;4.20;;;;;;;3.45;86.21;99180.98;78417;1300;3052677;-62
2023/12/12 09:56:17;;;;;;;6.80;4.00;;;;;;;3.97;84.08;99176.83;78940;1294;3011612;-62
2023/12/12 09:58:46;;;;;;;7.00;4.10;;;;;;;3.95;83.13;99177.45;79724;1294;3015105;-62
2023/12/12 10:01:15;;;;;;;8.00;4.70;;;;;;;3.79;83.68;99178.71;78951;1295;3013058;-62
2023/12/12 10:03:43;;;;;;;8.50;5.10;;;;;;;3.62;84.39;99177.77;79504;1292;3013074;-61
2023/12/12 10:06:11;;;;;;;9.40;5.00;;;;;;;3.40;85.05;99178.05;79528;1294;3011857;-61
2023/12/12 10:08:39;;;;;;;13.30;5.70;;;;;;;3.27;86.20;99176.11;78312;1298;3053406;-62
2023/12/12 10:11:07;;;;;;;8.80;5.50;;;;;;;3.19;86.46;99177.25;79531;1298;3013930;-60
2023/12/12 10:13:50;;;;;;;9.80;5.80;;;;;;;2.88;87.51;99173.11;79699;1297;3011935;-60
2023/12/12 10:16:18;;;;;;;8.10;4.10;;;;;;;2.90;88.28;99177.73;78401;1294;3068794;-61
2023/12/12 10:18:46;;;;;;;8.80;4.70;;;;;;;3.45;87.31;99179.60;79536;1297;3013030;-61
2023/12/12 10:21:17;;;;;;;10.00;4.90;;;;;;;4.11;84.98;99177.36;79390;1293;3012006;-59
2023/12/12 10:23:52;;;;;;;9.40;4.80;;;;;;;4.18;83.48;99180.70;78539;1292;3052267;-59
2023/12/12 10:26:29;;;;;;;9.50;4.80;;;;;;;4.14;83.52;99174.29;79017;1295;3011937;-60
2023/12/12 10:29:01;;;;;;;9.40;4.70;;;;;;;3.97;83.75;99177.88;78488;1298;3049543;-61
2023/12/12 10:31:28;;;;;;;8.90;5.00;;;;;;;3.77;84.15;99172.40;79688;1292;3013354;-61
2023/12/12 10:33:57;;;;;;;7.20;4.60;;;;;;;3.62;84.82;99172.26;78429;1298;3052165;-61
2023/12/12 10:36:24;;;;;;;11.60;4.60;;;;;;;3.50;85.50;99176.16;79885;1294;3019154;-61
2023/12/12 10:39:10;;;;;;;9.00;4.50;;;;;;;3.38;85.75;99174.70;79058;1295;3011577;-61
2023/12/12 10:41:38;;;;;;;14.20;5.80;;;;;;;3.18;86.41;99170.52;78260;1298;3056004;-60
2023/12/12 10:44:08;;;;;;;6.70;3.70;;;;;;;3.08;87.03;99174.18;79367;1292;3018738;-60
2023/12/12 10:46:40;;;;;;;8.80;3.90;;;;;;;3.50;86.38;99175.79;79094;1298;3011698;-60
2023/12/12 10:49:07;;;;;;;6.80;3.60;;;;;;;4.18;84.50;99170.33;79520;1295;3013207;-60
2023/12/12 10:51:36;;;;;;;7.00;3.60;;;;;;;4.21;83.00;99168.45;78909;1298;3011477;-59
2023/12/12 10:54:03;;;;;;;6.20;3.60;;;;;;;4.04;83.04;99168.93;79394;1300;3020815;-60
2023/12/12 10:56:35;;;;;;;6.70;4.40;;;;;;;3.88;83.58;99164.86;79409;1294;3011871;-60
2023/12/12 10:59:03;;;;;;;9.00;4.10;;;;;;;3.71;84.19;99168.98;78518;1297;3057178;-60
2023/12/12 11:01:31;;;;;;;9.30;5.70;;;;;;;3.62;84.65;99167.56;79724;1298;3011725;-62
2023/12/12 11:04:04;;;;;;;11.20;5.00;;;;;;;3.49;85.10;99164.75;79534;1292;3011992;-62
2023/12/12 11:06:33;;;;;;;8.50;5.00;;;;;;;3.37;85.64;99170.89;78014;1300;3053229;-62
2023/12/12 11:09:00;;;;;;;8.20;4.60;;;;;;;3.23;86.18;99166.73;79516;1298;3018895;-60
2023/12/12 11:11:26;;;;;;;8.30;3.80;;;;;;;3.18;86.63;99169.48;79681;1296;3013400;-61
2023/12/12 11:13:55;;;;;;;10.90;4.60;;;;;;;3.59;85.95;99170.27;78506;1295;3026889;-62
2023/12/12 11:16:21;;;;;;;7.10;4.10;;;;;;;4.10;83.92;99175.80;79543;1292;3019241;-62
2023/12/12 11:18:49;;;;;;;12.80;4.90;;;;;;;4.10;83.23;99175.48;79371;1293;3011453;-60
2023/12/12 11:21:42;;;;;;;11.80;6.00;;;;;;;3.95;83.47;99174.65;78335;1296;3026261;-60
2023/12/12 11:24:11;;;;;;;10.60;5.20;;;;;;;3.59;84.45;99173.58;78321;1298;3053426;-59
2023/12/12 11:26:38;;;;;;;11.10;5.30;;;;;;;3.49;85.29;99176.87;79711;1298;3013886;-63